sensor_id;sensor_type;location;lat;lon;timestamp;P1;durP1;ratioP1;P2;durP2;ratioP2
9218;SDS011;4644;48.858;9.184;2023-06-22T15:00:36;11.60;;;4.72;;
9218;SDS011;4644;48.858;9.184;2023-06-22T15:03:03;10.52;;;3.92;;
9218;SDS011;4644;48.858;9.184;2023-06-22T15:05:32;8.50;;;3.38;;
9218;SDS011;4644;48.858;9.184;2023-06-22T15:07:59;8.15;;;3.40;;
9218;SDS011;4644;48.858;9.184;2023-06-22T15:10:26;8.40;;;2.80;;
9218;SDS011;4644;48.858;9.184;2023-06-22T15:12:55;10.63;;;3.60;;
9218;SDS011;4644;48.858;9.184;2023-06-22T15:15:22;7.37;;;2.97;;
9218;SDS011;4644;48.858;9.184;2023-06-22T15:17:48;8.88;;;3.10;;
9218;SDS011;4644;48.858;9.184;2023-06-22T15:20:15;7.80;;;3.00;;
9218;SDS011;4644;48.858;9.184;2023-06-22T15:22:42;6.00;;;2.90;;
9218;SDS011;4644;48.858;9.184;2023-06-22T15:25:09;8.80;;;2.95;;
9218;SDS011;4644;48.858;9.184;2023-06-22T15:27:36;11.30;;;3.53;;
9218;SDS011;4644;48.858;9.184;2023-06-22T15:30:06;10.48;;;3.25;;
9218;SDS011;4644;48.858;9.184;2023-06-22T15:32:33;8.90;;;3.25;;
9218;SDS011;4644;48.858;9.184;2023-06-22T15:35:00;8.85;;;3.13;;
9218;SDS011;4644;48.858;9.184;2023-06-22T15:37:28;13.25;;;3.30;;
9218;SDS011;4644;48.858;9.184;2023-06-22T15:39:55;9.35;;;3.60;;
9218;SDS011;4644;48.858;9.184;2023-06-22T15:42:23;8.90;;;3.30;;
9218;SDS011;4644;48.858;9.184;2023-06-22T15:44:50;9.52;;;3.67;;
9218;SDS011;4644;48.858;9.184;2023-06-22T15:47:18;9.00;;;3.63;;
9218;SDS011;4644;48.858;9.184;2023-06-22T15:49:47;9.23;;;3.58;;
9218;SDS011;4644;48.858;9.184;2023-06-22T15:52:14;8.20;;;3.00;;
9218;SDS011;4644;48.858;9.184;2023-06-22T15:54:44;9.40;;;3.20;;
9218;SDS011;4644;48.858;9.184;2023-06-22T15:57:11;8.23;;;3.42;;
9218;SDS011;4644;48.858;9.184;2023-06-22T15:59:39;9.80;;;3.58;;
9218;SDS011;4644;48.858;9.184;2023-06-22T16:02:06;8.93;;;3.33;;
9218;SDS011;4644;48.858;9.184;2023-06-22T16:04:35;12.27;;;3.45;;
9218;SDS011;4644;48.858;9.184;2023-06-22T16:07:02;9.35;;;3.40;;
9218;SDS011;4644;48.858;9.184;2023-06-22T16:09:29;9.23;;;3.15;;
9218;SDS011;4644;48.858;9.184;2023-06-22T16:11:56;6.78;;;2.95;;
9218;SDS011;4644;48.858;9.184;2023-06-22T16:14:23;7.47;;;3.13;;
9218;SDS011;4644;48.858;9.184;2023-06-22T16:16:50;7.28;;;3.42;;
9218;SDS011;4644;48.858;9.184;2023-06-22T16:19:17;9.20;;;3.90;;
9218;SDS011;4644;48.858;9.184;2023-06-22T16:21:45;9.27;;;3.90;;
9218;SDS011;4644;48.858;9.184;2023-06-22T16:24:12;7.43;;;3.05;;
9218;SDS011;4644;48.858;9.184;2023-06-22T16:26:39;8.57;;;3.43;;
9218;SDS011;4644;48.858;9.184;2023-06-22T16:29:08;9.10;;;3.42;;
9218;SDS011;4644;48.858;9.184;2023-06-22T16:31:36;10.57;;;3.65;;
9218;SDS011;4644;48.858;9.184;2023-06-22T16:34:03;7.25;;;3.10;;
9218;SDS011;4644;48.858;9.184;2023-06-22T16:36:30;8.63;;;3.30;;
9218;SDS011;4644;48.858;9.184;2023-06-22T16:38:58;9.05;;;3.53;;
9218;SDS011;4644;48.858;9.184;2023-06-22T16:41:26;11.83;;;3.60;;
9218;SDS011;4644;48.858;9.184;2023-06-22T16:43:55;7.07;;;3.00;;
9218;SDS011;4644;48.858;9.184;2023-06-22T16:46:21;8.38;;;2.90;;
9218;SDS011;4644;48.858;9.184;2023-06-22T16:48:49;7.28;;;3.10;;
9218;SDS011;4644;48.858;9.184;2023-06-22T16:51:16;7.75;;;3.78;;
9218;SDS011;4644;48.858;9.184;2023-06-22T16:53:43;9.50;;;2.72;;
9218;SDS011;4644;48.858;9.184;2023-06-22T16:56:12;7.22;;;2.97;;
9218;SDS011;4644;48.858;9.184;2023-06-22T16:58:39;8.52;;;3.10;;
9218;SDS011;4644;48.858;9.184;2023-06-22T17:01:07;8.82;;;4.00;;
9218;SDS011;4644;48.858;9.184;2023-06-22T17:03:35;7.20;;;3.00;;
9218;SDS011;4644;48.858;9.184;2023-06-22T17:06:06;9.52;;;3.20;;
9218;SDS011;4644;48.858;9.184;2023-06-22T17:08:33;8.73;;;3.60;;
9218;SDS011;4644;48.858;9.184;2023-06-22T17:11:02;7.53;;;3.38;;
9218;SDS011;4644;48.858;9.184;2023-06-22T17:13:31;11.15;;;3.42;;
9218;SDS011;4644;48.858;9.184;2023-06-22T17:16:00;7.30;;;2.92;;
9218;SDS011;4644;48.858;9.184;2023-06-22T17:18:29;9.52;;;3.13;;
9218;SDS011;4644;48.858;9.184;2023-06-22T17:20:56;11.80;;;3.20;;
9218;SDS011;4644;48.858;9.184;2023-06-22T17:23:24;9.38;;;3.35;;
9218;SDS011;4644;48.858;9.184;2023-06-22T17:25:53;5.83;;;2.90;;
9218;SDS011;4644;48.858;9.184;2023-06-22T17:28:21;7.32;;;3.45;;
9218;SDS011;4644;48.858;9.184;2023-06-22T17:30:55;8.57;;;3.05;;
9218;SDS011;4644;48.858;9.184;2023-06-22T17:33:35;7.00;;;3.28;;
9218;SDS011;4644;48.858;9.184;2023-06-22T17:36:02;10.10;;;3.35;;
9218;SDS011;4644;48.858;9.184;2023-06-22T17:38:30;9.35;;;3.20;;
9218;SDS011;4644;48.858;9.184;2023-06-22T17:41:00;6.03;;;2.90;;
9218;SDS011;4644;48.858;9.184;2023-06-22T17:43:27;7.80;;;3.10;;
9218;SDS011;4644;48.858;9.184;2023-06-22T17:45:57;10.32;;;3.58;;
9218;SDS011;4644;48.858;9.184;2023-06-22T17:48:25;5.70;;;3.03;;
9218;SDS011;4644;48.858;9.184;2023-06-22T17:50:56;7.35;;;2.83;;
9218;SDS011;4644;48.858;9.184;2023-06-22T17:53:25;6.65;;;3.20;;
9218;SDS011;4644;48.858;9.184;2023-06-22T17:55:52;9.02;;;2.78;;
9218;SDS011;4644;48.858;9.184;2023-06-22T17:58:19;6.40;;;2.95;;
9218;SDS011;4644;48.858;9.184;2023-06-22T18:00:47;8.43;;;3.10;;
9218;SDS011;4644;48.858;9.184;2023-06-22T18:03:15;7.43;;;3.10;;
9218;SDS011;4644;48.858;9.184;2023-06-22T18:05:49;9.02;;;3.10;;
9218;SDS011;4644;48.858;9.184;2023-06-22T18:08:16;6.70;;;3.00;;
9218;SDS011;4644;48.858;9.184;2023-06-22T18:10:51;9.40;;;2.88;;
9218;SDS011;4644;48.858;9.184;2023-06-22T18:13:22;8.73;;;3.15;;
9218;SDS011;4644;48.858;9.184;2023-06-22T18:15:50;5.90;;;2.87;;
9218;SDS011;4644;48.858;9.184;2023-06-22T18:18:20;6.50;;;2.90;;
9218;SDS011;4644;48.858;9.184;2023-06-22T18:20:49;4.88;;;2.72;;
9218;SDS011;4644;48.858;9.184;2023-06-22T18:23:17;10.00;;;2.67;;
9218;SDS011;4644;48.858;9.184;2023-06-22T18:25:45;8.63;;;2.83;;
9218;SDS011;4644;48.858;9.184;2023-06-22T18:28:13;6.45;;;3.00;;
9218;SDS011;4644;48.858;9.184;2023-06-22T18:30:42;8.77;;;2.85;;
9218;SDS011;4644;48.858;9.184;2023-06-22T18:33:09;5.80;;;2.70;;
9218;SDS011;4644;48.858;9.184;2023-06-22T18:35:37;9.55;;;3.13;;
9218;SDS011;4644;48.858;9.184;2023-06-22T18:38:04;4.82;;;2.80;;
9218;SDS011;4644;48.858;9.184;2023-06-22T18:40:32;6.65;;;2.55;;
9218;SDS011;4644;48.858;9.184;2023-06-22T18:42:59;8.43;;;2.75;;
9218;SDS011;4644;48.858;9.184;2023-06-22T18:45:27;5.73;;;2.33;;
9218;SDS011;4644;48.858;9.184;2023-06-22T18:47:55;6.13;;;2.50;;
9218;SDS011;4644;48.858;9.184;2023-06-22T18:50:42;8.27;;;3.03;;
9218;SDS011;4644;48.858;9.184;2023-06-22T18:53:16;6.13;;;2.50;;
9218;SDS011;4644;48.858;9.184;2023-06-22T18:55:44;5.95;;;2.33;;
9218;SDS011;4644;48.858;9.184;2023-06-22T18:58:16;3.95;;;2.05;;
9218;SDS011;4644;48.858;9.184;2023-06-22T19:00:49;4.85;;;2.13;;
9218;SDS011;4644;48.858;9.184;2023-06-22T19:03:29;5.22;;;2.17;;
9218;SDS011;4644;48.858;9.184;2023-06-22T19:05:59;6.28;;;2.20;;
9218;SDS011;4644;48.858;9.184;2023-06-22T19:08:26;3.80;;;2.10;;
9218;SDS011;4644;48.858;9.184;2023-06-22T19:10:53;5.20;;;2.10;;
9218;SDS011;4644;48.858;9.184;2023-06-22T19:13:44;4.35;;;2.22;;
9218;SDS011;4644;48.858;9.184;2023-06-22T19:16:14;5.18;;;2.40;;
9218;SDS011;4644;48.858;9.184;2023-06-22T19:18:41;5.45;;;2.28;;
9218;SDS011;4644;48.858;9.184;2023-06-22T19:21:10;3.67;;;2.15;;
9218;SDS011;4644;48.858;9.184;2023-06-22T19:23:38;4.32;;;2.05;;
9218;SDS011;4644;48.858;9.184;2023-06-22T19:26:07;4.97;;;2.13;;
9218;SDS011;4644;48.858;9.184;2023-06-22T19:28:34;8.10;;;2.53;;
9218;SDS011;4644;48.858;9.184;2023-06-22T19:31:11;5.07;;;2.33;;
9218;SDS011;4644;48.858;9.184;2023-06-22T19:33:38;4.53;;;2.15;;
9218;SDS011;4644;48.858;9.184;2023-06-22T19:36:05;5.78;;;2.67;;
9218;SDS011;4644;48.858;9.184;2023-06-22T19:38:34;4.93;;;2.47;;
9218;SDS011;4644;48.858;9.184;2023-06-22T19:41:06;6.40;;;2.70;;
9218;SDS011;4644;48.858;9.184;2023-06-22T19:43:33;4.85;;;2.42;;
9218;SDS011;4644;48.858;9.184;2023-06-22T19:46:00;5.38;;;2.28;;
9218;SDS011;4644;48.858;9.184;2023-06-22T19:48:29;4.88;;;2.42;;
9218;SDS011;4644;48.858;9.184;2023-06-22T19:51:01;6.15;;;2.30;;
9218;SDS011;4644;48.858;9.184;2023-06-22T19:53:29;5.05;;;2.47;;
9218;SDS011;4644;48.858;9.184;2023-06-22T19:55:58;6.10;;;2.97;;
9218;SDS011;4644;48.858;9.184;2023-06-22T19:58:26;7.00;;;2.60;;
9218;SDS011;4644;48.858;9.184;2023-06-22T20:00:54;5.30;;;2.83;;
9218;SDS011;4644;48.858;9.184;2023-06-22T20:03:22;5.95;;;2.60;;
9218;SDS011;4644;48.858;9.184;2023-06-22T20:05:53;5.57;;;2.78;;
9218;SDS011;4644;48.858;9.184;2023-06-22T20:08:20;5.47;;;2.50;;
9218;SDS011;4644;48.858;9.184;2023-06-22T20:10:47;8.13;;;3.00;;
9218;SDS011;4644;48.858;9.184;2023-06-22T20:13:16;6.30;;;2.70;;
9218;SDS011;4644;48.858;9.184;2023-06-22T20:15:45;5.45;;;2.55;;
9218;SDS011;4644;48.858;9.184;2023-06-22T20:18:14;5.03;;;2.90;;
9218;SDS011;4644;48.858;9.184;2023-06-22T20:20:42;6.75;;;2.95;;
9218;SDS011;4644;48.858;9.184;2023-06-22T20:23:10;6.22;;;2.70;;
9218;SDS011;4644;48.858;9.184;2023-06-22T20:25:37;6.70;;;2.70;;
9218;SDS011;4644;48.858;9.184;2023-06-22T20:28:08;6.50;;;2.93;;
9218;SDS011;4644;48.858;9.184;2023-06-22T20:30:37;7.75;;;3.13;;
9218;SDS011;4644;48.858;9.184;2023-06-22T20:33:13;6.78;;;3.00;;
9218;SDS011;4644;48.858;9.184;2023-06-22T20:35:40;5.38;;;3.00;;
9218;SDS011;4644;48.858;9.184;2023-06-22T20:38:08;7.10;;;3.10;;
9218;SDS011;4644;48.858;9.184;2023-06-22T20:40:35;5.47;;;2.73;;
9218;SDS011;4644;48.858;9.184;2023-06-22T20:43:02;4.70;;;2.85;;
9218;SDS011;4644;48.858;9.184;2023-06-22T20:45:29;5.88;;;2.88;;
9218;SDS011;4644;48.858;9.184;2023-06-22T20:47:58;7.30;;;2.90;;
9218;SDS011;4644;48.858;9.184;2023-06-22T20:50:26;7.00;;;3.00;;
9218;SDS011;4644;48.858;9.184;2023-06-22T20:52:55;6.03;;;2.85;;
9218;SDS011;4644;48.858;9.184;2023-06-22T20:55:23;4.50;;;2.63;;
9218;SDS011;4644;48.858;9.184;2023-06-22T20:57:49;6.27;;;2.50;;
9218;SDS011;4644;48.858;9.184;2023-06-22T21:00:17;4.70;;;2.23;;
9218;SDS011;4644;48.858;9.184;2023-06-22T21:02:44;1.92;;;1.50;;
9218;SDS011;4644;48.858;9.184;2023-06-22T21:05:13;1.30;;;1.08;;
9218;SDS011;4644;48.858;9.184;2023-06-22T21:07:40;3.83;;;1.20;;
9218;SDS011;4644;48.858;9.184;2023-06-22T21:10:07;1.97;;;0.93;;
9218;SDS011;4644;48.858;9.184;2023-06-22T21:12:34;1.17;;;1.00;;
9218;SDS011;4644;48.858;9.184;2023-06-22T21:15:01;1.20;;;0.60;;
9218;SDS011;4644;48.858;9.184;2023-06-22T21:17:30;0.70;;;0.63;;
9218;SDS011;4644;48.858;9.184;2023-06-22T21:19:57;1.40;;;0.70;;
9218;SDS011;4644;48.858;9.184;2023-06-22T21:22:26;0.63;;;0.60;;
9218;SDS011;4644;48.858;9.184;2023-06-22T21:25:04;1.67;;;0.70;;
9218;SDS011;4644;48.858;9.184;2023-06-22T21:27:32;1.52;;;0.70;;
9218;SDS011;4644;48.858;9.184;2023-06-22T21:30:00;1.90;;;0.75;;
9218;SDS011;4644;48.858;9.184;2023-06-22T21:32:27;0.68;;;0.68;;
9218;SDS011;4644;48.858;9.184;2023-06-22T21:34:54;1.13;;;0.60;;
9218;SDS011;4644;48.858;9.184;2023-06-22T21:37:21;0.82;;;0.73;;
9218;SDS011;4644;48.858;9.184;2023-06-22T21:39:50;0.80;;;0.70;;
9218;SDS011;4644;48.858;9.184;2023-06-22T21:42:17;0.95;;;0.63;;
9218;SDS011;4644;48.858;9.184;2023-06-22T21:44:46;0.87;;;0.77;;
9218;SDS011;4644;48.858;9.184;2023-06-22T21:47:13;0.70;;;0.70;;
9218;SDS011;4644;48.858;9.184;2023-06-22T21:49:41;1.00;;;0.90;;
9218;SDS011;4644;48.858;9.184;2023-06-22T21:52:07;1.92;;;0.90;;
9218;SDS011;4644;48.858;9.184;2023-06-22T21:54:35;0.90;;;0.90;;
9218;SDS011;4644;48.858;9.184;2023-06-22T21:57:04;1.50;;;1.23;;
9218;SDS011;4644;48.858;9.184;2023-06-22T21:59:32;1.50;;;0.90;;
9218;SDS011;4644;48.858;9.184;2023-06-22T22:01:58;1.20;;;1.10;;
9218;SDS011;4644;48.858;9.184;2023-06-22T22:04:25;0.88;;;0.88;;
9218;SDS011;4644;48.858;9.184;2023-06-22T22:06:52;0.80;;;0.80;;
9218;SDS011;4644;48.858;9.184;2023-06-22T22:09:20;1.10;;;1.10;;
9218;SDS011;4644;48.858;9.184;2023-06-22T22:11:47;1.50;;;1.10;;
9218;SDS011;4644;48.858;9.184;2023-06-22T22:14:16;1.85;;;0.98;;
9218;SDS011;4644;48.858;9.184;2023-06-22T22:16:43;1.02;;;1.00;;
9218;SDS011;4644;48.858;9.184;2023-06-22T22:19:10;1.17;;;1.00;;
9218;SDS011;4644;48.858;9.184;2023-06-22T22:21:38;1.80;;;1.02;;
9218;SDS011;4644;48.858;9.184;2023-06-22T22:24:05;1.30;;;1.20;;
9218;SDS011;4644;48.858;9.184;2023-06-22T22:26:34;1.83;;;1.08;;
9218;SDS011;4644;48.858;9.184;2023-06-22T22:29:02;1.20;;;1.10;;
9218;SDS011;4644;48.858;9.184;2023-06-22T22:31:30;1.73;;;1.20;;
9218;SDS011;4644;48.858;9.184;2023-06-22T22:34:02;1.30;;;1.20;;
9218;SDS011;4644;48.858;9.184;2023-06-22T22:36:29;2.90;;;1.40;;
9218;SDS011;4644;48.858;9.184;2023-06-22T22:38:56;2.60;;;1.37;;
9218;SDS011;4644;48.858;9.184;2023-06-22T22:41:23;1.48;;;1.38;;
9218;SDS011;4644;48.858;9.184;2023-06-22T22:43:50;1.40;;;1.30;;
9218;SDS011;4644;48.858;9.184;2023-06-22T22:46:16;1.35;;;1.20;;
9218;SDS011;4644;48.858;9.184;2023-06-22T22:48:45;1.60;;;1.30;;
9218;SDS011;4644;48.858;9.184;2023-06-22T22:51:12;1.40;;;1.30;;
9218;SDS011;4644;48.858;9.184;2023-06-22T22:53:40;1.35;;;1.27;;
9218;SDS011;4644;48.858;9.184;2023-06-22T22:56:07;1.42;;;1.33;;
9218;SDS011;4644;48.858;9.184;2023-06-22T22:58:34;1.43;;;1.33;;
9218;SDS011;4644;48.858;9.184;2023-06-22T23:01:02;1.30;;;1.20;;
9218;SDS011;4644;48.858;9.184;2023-06-22T23:03:29;1.63;;;1.37;;
9218;SDS011;4644;48.858;9.184;2023-06-22T23:05:57;2.38;;;1.30;;
9218;SDS011;4644;48.858;9.184;2023-06-22T23:08:24;1.42;;;1.33;;
9218;SDS011;4644;48.858;9.184;2023-06-22T23:10:52;2.85;;;1.30;;
9218;SDS011;4644;48.858;9.184;2023-06-22T23:13:19;1.42;;;1.33;;
9218;SDS011;4644;48.858;9.184;2023-06-22T23:15:46;1.50;;;1.30;;
9218;SDS011;4644;48.858;9.184;2023-06-22T23:18:13;1.35;;;1.25;;
9218;SDS011;4644;48.858;9.184;2023-06-22T23:20:40;1.67;;;1.40;;
9218;SDS011;4644;48.858;9.184;2023-06-22T23:23:08;1.52;;;1.42;;
9218;SDS011;4644;48.858;9.184;2023-06-22T23:25:35;1.60;;;1.50;;
9218;SDS011;4644;48.858;9.184;2023-06-22T23:28:03;1.80;;;1.40;;
9218;SDS011;4644;48.858;9.184;2023-06-22T23:30:30;2.67;;;1.27;;
9218;SDS011;4644;48.858;9.184;2023-06-22T23:32:59;1.63;;;1.45;;
9218;SDS011;4644;48.858;9.184;2023-06-22T23:35:26;2.50;;;1.40;;
9218;SDS011;4644;48.858;9.184;2023-06-22T23:37:54;1.73;;;1.63;;
9218;SDS011;4644;48.858;9.184;2023-06-22T23:40:22;1.95;;;1.55;;
9218;SDS011;4644;48.858;9.184;2023-06-22T23:42:49;2.33;;;1.67;;
9218;SDS011;4644;48.858;9.184;2023-06-22T23:45:17;1.80;;;1.70;;
9218;SDS011;4644;48.858;9.184;2023-06-22T23:47:45;2.50;;;1.88;;
9218;SDS011;4644;48.858;9.184;2023-06-22T23:50:13;1.60;;;1.50;;
9218;SDS011;4644;48.858;9.184;2023-06-22T23:52:41;1.85;;;1.75;;
9218;SDS011;4644;48.858;9.184;2023-06-22T23:55:13;2.17;;;2.08;;
9218;SDS011;4644;48.858;9.184;2023-06-22T23:57:42;2.03;;;1.92;;
